sensor_id;sensor_type;location;lat;lon;timestamp;P1;durP1;ratioP1;P2;durP2;ratioP2
79015;SDS011;72726;44.842;37.556;2024-01-15T00:01:00;7.05;;;2.03;;
79015;SDS011;72726;44.842;37.556;2024-01-15T00:02:01;3.80;;;1.92;;
79015;SDS011;72726;44.842;37.556;2024-01-15T00:03:03;5.20;;;1.95;;
79015;SDS011;72726;44.842;37.556;2024-01-15T00:04:04;8.00;;;2.08;;
79015;SDS011;72726;44.842;37.556;2024-01-15T00:05:06;6.43;;;2.28;;
79015;SDS011;72726;44.842;37.556;2024-01-15T00:06:07;6.68;;;2.15;;
79015;SDS011;72726;44.842;37.556;2024-01-15T00:07:08;7.65;;;2.30;;
79015;SDS011;72726;44.842;37.556;2024-01-15T00:08:09;6.13;;;2.50;;
79015;SDS011;72726;44.842;37.556;2024-01-15T00:09:10;7.82;;;2.08;;
79015;SDS011;72726;44.842;37.556;2024-01-15T00:10:12;6.85;;;2.20;;
79015;SDS011;72726;44.842;37.556;2024-01-15T00:11:13;4.88;;;2.00;;
79015;SDS011;72726;44.842;37.556;2024-01-15T00:12:13;6.40;;;2.28;;
79015;SDS011;72726;44.842;37.556;2024-01-15T00:13:15;9.35;;;2.30;;
79015;SDS011;72726;44.842;37.556;2024-01-15T00:14:16;5.97;;;2.45;;
79015;SDS011;72726;44.842;37.556;2024-01-15T00:15:20;6.25;;;2.20;;
79015;SDS011;72726;44.842;37.556;2024-01-15T00:16:21;6.53;;;2.20;;
79015;SDS011;72726;44.842;37.556;2024-01-15T00:17:22;7.57;;;2.13;;
79015;SDS011;72726;44.842;37.556;2024-01-15T00:18:23;6.88;;;2.22;;
79015;SDS011;72726;44.842;37.556;2024-01-15T00:19:24;7.07;;;2.30;;
79015;SDS011;72726;44.842;37.556;2024-01-15T00:20:25;6.07;;;2.28;;
79015;SDS011;72726;44.842;37.556;2024-01-15T00:21:26;5.22;;;2.13;;
79015;SDS011;72726;44.842;37.556;2024-01-15T00:22:28;7.47;;;1.92;;
79015;SDS011;72726;44.842;37.556;2024-01-15T00:23:29;7.13;;;2.42;;
79015;SDS011;72726;44.842;37.556;2024-01-15T00:24:30;5.22;;;2.08;;
79015;SDS011;72726;44.842;37.556;2024-01-15T00:25:31;5.68;;;2.08;;
79015;SDS011;72726;44.842;37.556;2024-01-15T00:26:33;6.43;;;2.17;;
79015;SDS011;72726;44.842;37.556;2024-01-15T00:27:34;7.13;;;2.13;;
79015;SDS011;72726;44.842;37.556;2024-01-15T00:28:35;6.68;;;2.20;;
79015;SDS011;72726;44.842;37.556;2024-01-15T00:29:39;6.22;;;2.38;;
79015;SDS011;72726;44.842;37.556;2024-01-15T00:30:40;7.68;;;2.45;;
79015;SDS011;72726;44.842;37.556;2024-01-15T00:31:41;7.25;;;2.53;;
79015;SDS011;72726;44.842;37.556;2024-01-15T00:32:42;6.65;;;3.10;;
79015;SDS011;72726;44.842;37.556;2024-01-15T00:33:44;6.20;;;2.30;;
79015;SDS011;72726;44.842;37.556;2024-01-15T00:34:45;6.75;;;2.42;;
79015;SDS011;72726;44.842;37.556;2024-01-15T00:35:46;6.13;;;2.20;;
79015;SDS011;72726;44.842;37.556;2024-01-15T00:36:47;6.80;;;2.47;;
79015;SDS011;72726;44.842;37.556;2024-01-15T00:37:49;5.88;;;2.35;;
79015;SDS011;72726;44.842;37.556;2024-01-15T00:38:50;5.22;;;2.70;;
79015;SDS011;72726;44.842;37.556;2024-01-15T00:39:52;8.32;;;2.28;;
79015;SDS011;72726;44.842;37.556;2024-01-15T00:40:53;7.38;;;2.20;;
79015;SDS011;72726;44.842;37.556;2024-01-15T00:41:55;5.13;;;1.77;;
79015;SDS011;72726;44.842;37.556;2024-01-15T00:42:56;6.53;;;2.30;;
79015;SDS011;72726;44.842;37.556;2024-01-15T00:43:57;5.80;;;1.98;;
79015;SDS011;72726;44.842;37.556;2024-01-15T00:44:58;5.50;;;2.00;;
79015;SDS011;72726;44.842;37.556;2024-01-15T00:46:01;4.55;;;1.90;;
79015;SDS011;72726;44.842;37.556;2024-01-15T00:47:03;4.68;;;1.83;;
79015;SDS011;72726;44.842;37.556;2024-01-15T00:48:04;6.50;;;2.72;;
79015;SDS011;72726;44.842;37.556;2024-01-15T00:49:05;5.43;;;1.98;;
79015;SDS011;72726;44.842;37.556;2024-01-15T00:50:06;5.78;;;1.83;;
79015;SDS011;72726;44.842;37.556;2024-01-15T00:51:08;5.90;;;1.80;;
79015;SDS011;72726;44.842;37.556;2024-01-15T00:52:09;7.38;;;2.28;;
79015;SDS011;72726;44.842;37.556;2024-01-15T00:53:11;5.50;;;2.30;;
79015;SDS011;72726;44.842;37.556;2024-01-15T00:54:12;4.70;;;2.13;;
79015;SDS011;72726;44.842;37.556;2024-01-15T00:55:13;6.35;;;1.88;;
79015;SDS011;72726;44.842;37.556;2024-01-15T00:56:14;5.38;;;2.15;;
79015;SDS011;72726;44.842;37.556;2024-01-15T00:57:15;4.53;;;2.00;;
79015;SDS011;72726;44.842;37.556;2024-01-15T00:58:16;6.10;;;2.10;;
79015;SDS011;72726;44.842;37.556;2024-01-15T00:59:18;4.40;;;1.80;;
79015;SDS011;72726;44.842;37.556;2024-01-15T01:00:21;6.25;;;2.25;;
79015;SDS011;72726;44.842;37.556;2024-01-15T01:01:22;6.35;;;2.00;;
79015;SDS011;72726;44.842;37.556;2024-01-15T01:02:23;5.07;;;2.05;;
79015;SDS011;72726;44.842;37.556;2024-01-15T01:03:24;4.03;;;1.73;;
79015;SDS011;72726;44.842;37.556;2024-01-15T01:04:25;6.07;;;1.90;;
79015;SDS011;72726;44.842;37.556;2024-01-15T01:05:26;5.20;;;1.90;;
79015;SDS011;72726;44.842;37.556;2024-01-15T01:06:27;4.90;;;1.73;;
79015;SDS011;72726;44.842;37.556;2024-01-15T01:07:28;6.55;;;1.92;;
79015;SDS011;72726;44.842;37.556;2024-01-15T01:08:30;3.88;;;1.70;;
79015;SDS011;72726;44.842;37.556;2024-01-15T01:09:31;5.05;;;1.70;;
79015;SDS011;72726;44.842;37.556;2024-01-15T01:10:32;4.15;;;1.65;;
79015;SDS011;72726;44.842;37.556;2024-01-15T01:11:33;3.95;;;1.65;;
79015;SDS011;72726;44.842;37.556;2024-01-15T01:12:34;4.45;;;1.40;;
79015;SDS011;72726;44.842;37.556;2024-01-15T01:13:35;5.85;;;1.50;;
79015;SDS011;72726;44.842;37.556;2024-01-15T01:14:36;6.25;;;1.63;;
79015;SDS011;72726;44.842;37.556;2024-01-15T01:15:37;4.63;;;1.55;;
79015;SDS011;72726;44.842;37.556;2024-01-15T01:16:39;4.30;;;1.70;;
79015;SDS011;72726;44.842;37.556;2024-01-15T01:17:40;3.85;;;1.83;;
79015;SDS011;72726;44.842;37.556;2024-01-15T01:18:41;4.43;;;1.60;;
79015;SDS011;72726;44.842;37.556;2024-01-15T01:19:42;4.60;;;1.65;;
79015;SDS011;72726;44.842;37.556;2024-01-15T01:20:43;4.25;;;1.40;;
79015;SDS011;72726;44.842;37.556;2024-01-15T01:21:44;7.95;;;1.60;;
79015;SDS011;72726;44.842;37.556;2024-01-15T01:22:45;7.22;;;2.03;;
79015;SDS011;72726;44.842;37.556;2024-01-15T01:23:46;5.85;;;2.40;;
79015;SDS011;72726;44.842;37.556;2024-01-15T01:24:48;5.03;;;1.40;;
79015;SDS011;72726;44.842;37.556;2024-01-15T01:25:49;4.25;;;1.60;;
79015;SDS011;72726;44.842;37.556;2024-01-15T01:26:50;5.53;;;1.70;;
79015;SDS011;72726;44.842;37.556;2024-01-15T01:27:51;3.95;;;1.70;;
79015;SDS011;72726;44.842;37.556;2024-01-15T01:28:52;3.05;;;1.80;;
79015;SDS011;72726;44.842;37.556;2024-01-15T01:29:53;3.80;;;1.63;;
79015;SDS011;72726;44.842;37.556;2024-01-15T01:30:54;3.83;;;1.50;;
79015;SDS011;72726;44.842;37.556;2024-01-15T01:31:55;3.15;;;1.52;;
79015;SDS011;72726;44.842;37.556;2024-01-15T01:32:57;5.30;;;1.60;;
79015;SDS011;72726;44.842;37.556;2024-01-15T01:33:58;4.43;;;1.48;;
79015;SDS011;72726;44.842;37.556;2024-01-15T01:34:59;4.60;;;1.80;;
79015;SDS011;72726;44.842;37.556;2024-01-15T01:36:01;4.47;;;1.90;;
79015;SDS011;72726;44.842;37.556;2024-01-15T01:37:08;3.55;;;1.38;;
79015;SDS011;72726;44.842;37.556;2024-01-15T01:38:10;5.88;;;1.40;;
79015;SDS011;72726;44.842;37.556;2024-01-15T01:39:12;4.13;;;1.80;;
79015;SDS011;72726;44.842;37.556;2024-01-15T01:40:13;4.32;;;1.77;;
79015;SDS011;72726;44.842;37.556;2024-01-15T01:41:14;6.68;;;1.90;;
79015;SDS011;72726;44.842;37.556;2024-01-15T01:42:16;4.82;;;1.70;;
79015;SDS011;72726;44.842;37.556;2024-01-15T01:43:17;3.70;;;1.50;;
79015;SDS011;72726;44.842;37.556;2024-01-15T01:44:18;6.57;;;1.85;;
79015;SDS011;72726;44.842;37.556;2024-01-15T01:45:20;4.28;;;1.50;;
79015;SDS011;72726;44.842;37.556;2024-01-15T01:46:21;3.30;;;1.50;;
79015;SDS011;72726;44.842;37.556;2024-01-15T01:47:22;4.80;;;1.75;;
79015;SDS011;72726;44.842;37.556;2024-01-15T01:48:27;3.80;;;1.52;;
79015;SDS011;72726;44.842;37.556;2024-01-15T01:49:28;5.30;;;1.60;;
79015;SDS011;72726;44.842;37.556;2024-01-15T01:50:30;5.30;;;1.50;;
79015;SDS011;72726;44.842;37.556;2024-01-15T01:51:33;2.90;;;1.20;;
79015;SDS011;72726;44.842;37.556;2024-01-15T01:52:36;4.32;;;1.52;;
79015;SDS011;72726;44.842;37.556;2024-01-15T01:53:37;3.03;;;1.40;;
79015;SDS011;72726;44.842;37.556;2024-01-15T01:54:39;3.60;;;1.92;;
79015;SDS011;72726;44.842;37.556;2024-01-15T01:55:42;3.47;;;1.55;;
79015;SDS011;72726;44.842;37.556;2024-01-15T01:56:44;3.92;;;1.48;;
79015;SDS011;72726;44.842;37.556;2024-01-15T01:57:47;6.03;;;1.33;;
79015;SDS011;72726;44.842;37.556;2024-01-15T01:58:48;3.72;;;1.40;;
79015;SDS011;72726;44.842;37.556;2024-01-15T01:59:50;4.13;;;1.52;;
79015;SDS011;72726;44.842;37.556;2024-01-15T02:00:51;4.57;;;1.45;;
79015;SDS011;72726;44.842;37.556;2024-01-15T02:01:56;5.78;;;1.65;;
79015;SDS011;72726;44.842;37.556;2024-01-15T02:02:58;4.07;;;1.40;;
79015;SDS011;72726;44.842;37.556;2024-01-15T02:03:59;6.40;;;1.60;;
79015;SDS011;72726;44.842;37.556;2024-01-15T02:05:01;4.18;;;1.40;;
79015;SDS011;72726;44.842;37.556;2024-01-15T02:06:06;4.40;;;1.63;;
79015;SDS011;72726;44.842;37.556;2024-01-15T02:07:07;3.78;;;1.58;;
79015;SDS011;72726;44.842;37.556;2024-01-15T02:08:10;4.53;;;1.45;;
79015;SDS011;72726;44.842;37.556;2024-01-15T02:09:11;2.97;;;1.58;;
79015;SDS011;72726;44.842;37.556;2024-01-15T02:10:15;7.95;;;2.40;;
79015;SDS011;72726;44.842;37.556;2024-01-15T02:11:17;3.72;;;1.52;;
79015;SDS011;72726;44.842;37.556;2024-01-15T02:12:18;5.65;;;2.10;;
79015;SDS011;72726;44.842;37.556;2024-01-15T02:13:19;5.65;;;1.65;;
79015;SDS011;72726;44.842;37.556;2024-01-15T02:14:21;6.22;;;1.90;;
79015;SDS011;72726;44.842;37.556;2024-01-15T02:15:26;5.18;;;2.10;;
79015;SDS011;72726;44.842;37.556;2024-01-15T02:16:27;5.32;;;1.60;;
79015;SDS011;72726;44.842;37.556;2024-01-15T02:17:30;3.90;;;1.60;;
79015;SDS011;72726;44.842;37.556;2024-01-15T02:18:43;5.40;;;1.77;;
79015;SDS011;72726;44.842;37.556;2024-01-15T02:19:46;6.50;;;1.85;;
79015;SDS011;72726;44.842;37.556;2024-01-15T02:20:47;5.03;;;1.85;;
79015;SDS011;72726;44.842;37.556;2024-01-15T02:21:48;5.55;;;1.80;;
79015;SDS011;72726;44.842;37.556;2024-01-15T02:22:50;4.45;;;1.90;;
79015;SDS011;72726;44.842;37.556;2024-01-15T02:23:51;5.63;;;1.80;;
79015;SDS011;72726;44.842;37.556;2024-01-15T02:24:52;4.82;;;2.10;;
79015;SDS011;72726;44.842;37.556;2024-01-15T02:25:54;5.82;;;2.00;;
79015;SDS011;72726;44.842;37.556;2024-01-15T02:26:55;3.78;;;1.73;;
79015;SDS011;72726;44.842;37.556;2024-01-15T02:27:57;4.03;;;2.10;;
79015;SDS011;72726;44.842;37.556;2024-01-15T02:28:58;5.70;;;1.70;;
79015;SDS011;72726;44.842;37.556;2024-01-15T02:29:59;5.00;;;2.13;;
79015;SDS011;72726;44.842;37.556;2024-01-15T02:31:01;6.28;;;1.55;;
79015;SDS011;72726;44.842;37.556;2024-01-15T02:32:05;6.88;;;1.63;;
79015;SDS011;72726;44.842;37.556;2024-01-15T02:34:09;5.53;;;1.70;;
79015;SDS011;72726;44.842;37.556;2024-01-15T02:35:10;4.40;;;1.42;;
79015;SDS011;72726;44.842;37.556;2024-01-15T02:36:12;5.10;;;1.50;;
79015;SDS011;72726;44.842;37.556;2024-01-15T02:37:13;5.43;;;1.77;;
79015;SDS011;72726;44.842;37.556;2024-01-15T02:38:14;4.07;;;2.05;;
79015;SDS011;72726;44.842;37.556;2024-01-15T02:39:16;4.25;;;2.00;;
79015;SDS011;72726;44.842;37.556;2024-01-15T02:40:17;5.32;;;1.63;;
79015;SDS011;72726;44.842;37.556;2024-01-15T02:41:18;2.83;;;1.60;;
79015;SDS011;72726;44.842;37.556;2024-01-15T02:42:19;5.97;;;1.73;;
79015;SDS011;72726;44.842;37.556;2024-01-15T02:43:21;6.03;;;1.88;;
79015;SDS011;72726;44.842;37.556;2024-01-15T02:44:22;6.25;;;2.03;;
79015;SDS011;72726;44.842;37.556;2024-01-15T02:45:23;5.15;;;1.70;;
79015;SDS011;72726;44.842;37.556;2024-01-15T02:46:24;4.90;;;2.08;;
79015;SDS011;72726;44.842;37.556;2024-01-15T02:47:26;5.47;;;2.10;;
79015;SDS011;72726;44.842;37.556;2024-01-15T02:48:27;4.88;;;2.08;;
79015;SDS011;72726;44.842;37.556;2024-01-15T02:49:29;5.18;;;2.00;;
79015;SDS011;72726;44.842;37.556;2024-01-15T02:50:30;4.28;;;1.85;;
79015;SDS011;72726;44.842;37.556;2024-01-15T02:51:32;5.05;;;1.77;;
79015;SDS011;72726;44.842;37.556;2024-01-15T02:52:33;4.40;;;1.73;;
79015;SDS011;72726;44.842;37.556;2024-01-15T02:53:35;4.93;;;1.88;;
79015;SDS011;72726;44.842;37.556;2024-01-15T02:54:37;5.80;;;1.90;;
79015;SDS011;72726;44.842;37.556;2024-01-15T02:55:39;5.25;;;1.95;;
79015;SDS011;72726;44.842;37.556;2024-01-15T02:56:40;5.65;;;1.55;;
79015;SDS011;72726;44.842;37.556;2024-01-15T02:57:41;5.25;;;1.63;;
79015;SDS011;72726;44.842;37.556;2024-01-15T02:58:43;5.70;;;2.00;;
79015;SDS011;72726;44.842;37.556;2024-01-15T02:59:44;4.40;;;1.98;;
79015;SDS011;72726;44.842;37.556;2024-01-15T03:00:45;7.50;;;2.30;;
79015;SDS011;72726;44.842;37.556;2024-01-15T03:01:47;6.03;;;2.10;;
79015;SDS011;72726;44.842;37.556;2024-01-15T03:02:49;4.68;;;2.10;;
79015;SDS011;72726;44.842;37.556;2024-01-15T03:03:51;4.72;;;2.08;;
79015;SDS011;72726;44.842;37.556;2024-01-15T03:04:53;5.97;;;2.17;;
79015;SDS011;72726;44.842;37.556;2024-01-15T03:05:54;5.32;;;2.30;;
79015;SDS011;72726;44.842;37.556;2024-01-15T03:06:55;5.80;;;2.45;;
79015;SDS011;72726;44.842;37.556;2024-01-15T03:08:01;6.50;;;2.60;;
79015;SDS011;72726;44.842;37.556;2024-01-15T03:09:02;6.78;;;2.55;;
79015;SDS011;72726;44.842;37.556;2024-01-15T03:10:07;6.68;;;2.40;;
79015;SDS011;72726;44.842;37.556;2024-01-15T03:11:09;5.85;;;2.40;;
79015;SDS011;72726;44.842;37.556;2024-01-15T03:12:10;6.78;;;2.53;;
79015;SDS011;72726;44.842;37.556;2024-01-15T03:13:12;6.20;;;2.53;;
79015;SDS011;72726;44.842;37.556;2024-01-15T03:14:13;11.20;;;3.20;;
79015;SDS011;72726;44.842;37.556;2024-01-15T03:15:15;7.78;;;2.83;;
79015;SDS011;72726;44.842;37.556;2024-01-15T03:16:16;7.88;;;2.97;;
79015;SDS011;72726;44.842;37.556;2024-01-15T03:17:17;7.10;;;2.53;;
79015;SDS011;72726;44.842;37.556;2024-01-15T03:18:18;7.93;;;2.33;;
79015;SDS011;72726;44.842;37.556;2024-01-15T03:19:20;7.43;;;2.80;;
79015;SDS011;72726;44.842;37.556;2024-01-15T03:20:21;8.80;;;2.90;;
79015;SDS011;72726;44.842;37.556;2024-01-15T03:21:22;8.35;;;3.00;;
79015;SDS011;72726;44.842;37.556;2024-01-15T03:22:24;6.53;;;2.55;;
79015;SDS011;72726;44.842;37.556;2024-01-15T03:23:25;7.47;;;2.70;;
79015;SDS011;72726;44.842;37.556;2024-01-15T03:24:26;8.05;;;2.72;;
79015;SDS011;72726;44.842;37.556;2024-01-15T03:25:27;7.28;;;2.80;;
79015;SDS011;72726;44.842;37.556;2024-01-15T03:26:29;6.63;;;2.88;;
79015;SDS011;72726;44.842;37.556;2024-01-15T03:27:30;8.18;;;3.10;;
79015;SDS011;72726;44.842;37.556;2024-01-15T03:28:31;5.70;;;2.40;;
79015;SDS011;72726;44.842;37.556;2024-01-15T03:29:33;6.53;;;2.58;;
79015;SDS011;72726;44.842;37.556;2024-01-15T03:30:34;6.78;;;2.60;;
79015;SDS011;72726;44.842;37.556;2024-01-15T03:31:35;6.57;;;2.42;;
79015;SDS011;72726;44.842;37.556;2024-01-15T03:32:36;9.30;;;2.90;;
79015;SDS011;72726;44.842;37.556;2024-01-15T03:33:38;6.50;;;2.67;;
79015;SDS011;72726;44.842;37.556;2024-01-15T03:34:39;7.68;;;2.72;;
79015;SDS011;72726;44.842;37.556;2024-01-15T03:35:40;6.40;;;2.55;;
79015;SDS011;72726;44.842;37.556;2024-01-15T03:36:42;8.15;;;2.70;;
79015;SDS011;72726;44.842;37.556;2024-01-15T03:37:43;6.97;;;2.53;;
79015;SDS011;72726;44.842;37.556;2024-01-15T03:38:44;7.22;;;2.67;;
79015;SDS011;72726;44.842;37.556;2024-01-15T03:39:46;8.05;;;3.00;;
79015;SDS011;72726;44.842;37.556;2024-01-15T03:40:47;7.47;;;3.05;;
79015;SDS011;72726;44.842;37.556;2024-01-15T03:41:48;7.55;;;3.25;;
79015;SDS011;72726;44.842;37.556;2024-01-15T03:42:50;7.55;;;3.05;;
79015;SDS011;72726;44.842;37.556;2024-01-15T03:43:52;8.27;;;2.97;;
79015;SDS011;72726;44.842;37.556;2024-01-15T03:44:53;10.02;;;3.47;;
79015;SDS011;72726;44.842;37.556;2024-01-15T03:45:54;8.85;;;3.05;;
79015;SDS011;72726;44.842;37.556;2024-01-15T03:46:56;11.55;;;2.95;;
79015;SDS011;72726;44.842;37.556;2024-01-15T03:47:58;7.78;;;2.67;;
79015;SDS011;72726;44.842;37.556;2024-01-15T03:49:00;7.63;;;2.95;;
79015;SDS011;72726;44.842;37.556;2024-01-15T03:50:01;6.93;;;2.90;;
79015;SDS011;72726;44.842;37.556;2024-01-15T03:51:03;9.75;;;3.40;;
79015;SDS011;72726;44.842;37.556;2024-01-15T03:52:04;7.95;;;3.47;;
79015;SDS011;72726;44.842;37.556;2024-01-15T03:53:06;7.20;;;3.13;;
79015;SDS011;72726;44.842;37.556;2024-01-15T03:54:07;7.38;;;2.92;;
79015;SDS011;72726;44.842;37.556;2024-01-15T03:55:08;6.43;;;3.33;;
79015;SDS011;72726;44.842;37.556;2024-01-15T03:56:10;7.15;;;2.78;;
79015;SDS011;72726;44.842;37.556;2024-01-15T03:57:11;6.32;;;2.33;;
79015;SDS011;72726;44.842;37.556;2024-01-15T03:58:12;6.57;;;2.30;;
79015;SDS011;72726;44.842;37.556;2024-01-15T03:59:15;6.85;;;2.58;;
79015;SDS011;72726;44.842;37.556;2024-01-15T04:00:17;6.20;;;2.42;;
79015;SDS011;72726;44.842;37.556;2024-01-15T04:01:19;5.93;;;2.45;;
79015;SDS011;72726;44.842;37.556;2024-01-15T04:02:20;9.57;;;2.75;;
79015;SDS011;72726;44.842;37.556;2024-01-15T04:03:21;5.80;;;2.70;;
79015;SDS011;72726;44.842;37.556;2024-01-15T04:04:22;5.70;;;2.50;;
79015;SDS011;72726;44.842;37.556;2024-01-15T04:05:24;6.75;;;2.20;;
79015;SDS011;72726;44.842;37.556;2024-01-15T04:06:25;6.28;;;2.30;;
79015;SDS011;72726;44.842;37.556;2024-01-15T04:07:26;5.75;;;2.55;;
79015;SDS011;72726;44.842;37.556;2024-01-15T04:08:28;7.57;;;2.50;;
79015;SDS011;72726;44.842;37.556;2024-01-15T04:09:29;9.30;;;2.85;;
79015;SDS011;72726;44.842;37.556;2024-01-15T04:10:30;6.18;;;2.25;;
79015;SDS011;72726;44.842;37.556;2024-01-15T04:11:32;6.45;;;2.30;;
79015;SDS011;72726;44.842;37.556;2024-01-15T04:12:33;5.93;;;2.05;;
79015;SDS011;72726;44.842;37.556;2024-01-15T04:13:34;5.63;;;2.20;;
79015;SDS011;72726;44.842;37.556;2024-01-15T04:14:36;5.95;;;1.95;;
79015;SDS011;72726;44.842;37.556;2024-01-15T04:15:37;5.75;;;2.40;;
79015;SDS011;72726;44.842;37.556;2024-01-15T04:16:39;6.13;;;2.30;;
79015;SDS011;72726;44.842;37.556;2024-01-15T04:17:40;8.55;;;2.42;;
79015;SDS011;72726;44.842;37.556;2024-01-15T04:18:41;5.07;;;1.83;;
79015;SDS011;72726;44.842;37.556;2024-01-15T04:19:45;7.57;;;1.95;;
79015;SDS011;72726;44.842;37.556;2024-01-15T04:20:48;6.40;;;2.10;;
79015;SDS011;72726;44.842;37.556;2024-01-15T04:21:50;5.18;;;2.20;;
79015;SDS011;72726;44.842;37.556;2024-01-15T04:22:51;7.20;;;2.45;;
79015;SDS011;72726;44.842;37.556;2024-01-15T04:23:53;5.53;;;2.40;;
79015;SDS011;72726;44.842;37.556;2024-01-15T04:24:54;5.35;;;2.25;;
79015;SDS011;72726;44.842;37.556;2024-01-15T04:25:57;5.65;;;2.50;;
79015;SDS011;72726;44.842;37.556;2024-01-15T04:26:58;9.13;;;2.50;;
79015;SDS011;72726;44.842;37.556;2024-01-15T04:27:59;7.03;;;2.38;;
79015;SDS011;72726;44.842;37.556;2024-01-15T04:29:01;6.40;;;2.42;;
79015;SDS011;72726;44.842;37.556;2024-01-15T04:30:02;6.40;;;2.83;;
79015;SDS011;72726;44.842;37.556;2024-01-15T04:31:04;6.25;;;2.47;;
79015;SDS011;72726;44.842;37.556;2024-01-15T04:32:05;6.90;;;2.50;;
79015;SDS011;72726;44.842;37.556;2024-01-15T04:33:07;5.25;;;2.40;;
79015;SDS011;72726;44.842;37.556;2024-01-15T04:34:08;8.07;;;2.55;;
79015;SDS011;72726;44.842;37.556;2024-01-15T04:35:10;8.07;;;3.33;;
79015;SDS011;72726;44.842;37.556;2024-01-15T04:36:13;10.25;;;3.72;;
79015;SDS011;72726;44.842;37.556;2024-01-15T04:37:14;7.70;;;3.33;;
79015;SDS011;72726;44.842;37.556;2024-01-15T04:38:16;7.75;;;3.30;;
79015;SDS011;72726;44.842;37.556;2024-01-15T04:39:17;7.68;;;3.00;;
79015;SDS011;72726;44.842;37.556;2024-01-15T04:40:18;8.00;;;3.30;;
79015;SDS011;72726;44.842;37.556;2024-01-15T04:41:20;6.75;;;2.97;;
79015;SDS011;72726;44.842;37.556;2024-01-15T04:42:21;7.45;;;2.67;;
79015;SDS011;72726;44.842;37.556;2024-01-15T04:43:22;7.68;;;3.28;;
79015;SDS011;72726;44.842;37.556;2024-01-15T04:44:24;6.07;;;3.00;;
79015;SDS011;72726;44.842;37.556;2024-01-15T04:45:25;9.20;;;3.40;;
79015;SDS011;72726;44.842;37.556;2024-01-15T04:46:29;7.13;;;3.00;;
79015;SDS011;72726;44.842;37.556;2024-01-15T04:47:30;7.75;;;2.92;;
79015;SDS011;72726;44.842;37.556;2024-01-15T04:48:32;8.75;;;3.30;;
79015;SDS011;72726;44.842;37.556;2024-01-15T04:49:33;8.93;;;3.13;;
79015;SDS011;72726;44.842;37.556;2024-01-15T04:50:34;6.88;;;2.97;;
79015;SDS011;72726;44.842;37.556;2024-01-15T04:51:35;7.93;;;3.00;;
79015;SDS011;72726;44.842;37.556;2024-01-15T04:52:37;8.48;;;3.15;;
79015;SDS011;72726;44.842;37.556;2024-01-15T04:53:38;8.75;;;3.03;;
79015;SDS011;72726;44.842;37.556;2024-01-15T04:54:39;8.73;;;2.85;;
79015;SDS011;72726;44.842;37.556;2024-01-15T04:55:41;6.53;;;2.95;;
79015;SDS011;72726;44.842;37.556;2024-01-15T04:56:42;6.78;;;2.88;;
79015;SDS011;72726;44.842;37.556;2024-01-15T04:57:43;8.90;;;3.38;;
79015;SDS011;72726;44.842;37.556;2024-01-15T04:58:44;7.90;;;3.00;;
79015;SDS011;72726;44.842;37.556;2024-01-15T04:59:46;8.27;;;3.22;;
79015;SDS011;72726;44.842;37.556;2024-01-15T05:00:47;13.05;;;3.65;;
79015;SDS011;72726;44.842;37.556;2024-01-15T05:01:48;9.02;;;4.03;;
79015;SDS011;72726;44.842;37.556;2024-01-15T05:02:50;14.90;;;4.65;;
79015;SDS011;72726;44.842;37.556;2024-01-15T05:03:51;8.75;;;3.75;;
79015;SDS011;72726;44.842;37.556;2024-01-15T05:04:52;8.45;;;3.30;;
79015;SDS011;72726;44.842;37.556;2024-01-15T05:05:54;7.65;;;3.45;;
79015;SDS011;72726;44.842;37.556;2024-01-15T05:06:55;8.73;;;3.78;;
79015;SDS011;72726;44.842;37.556;2024-01-15T05:07:56;10.52;;;3.63;;
79015;SDS011;72726;44.842;37.556;2024-01-15T05:08:58;10.30;;;4.28;;
79015;SDS011;72726;44.842;37.556;2024-01-15T05:10:00;9.13;;;3.80;;
79015;SDS011;72726;44.842;37.556;2024-01-15T05:11:01;10.55;;;3.92;;
79015;SDS011;72726;44.842;37.556;2024-01-15T05:12:03;10.63;;;3.80;;
79015;SDS011;72726;44.842;37.556;2024-01-15T05:13:04;9.88;;;3.85;;
79015;SDS011;72726;44.842;37.556;2024-01-15T05:14:06;8.77;;;3.92;;
79015;SDS011;72726;44.842;37.556;2024-01-15T05:15:07;10.57;;;3.83;;
79015;SDS011;72726;44.842;37.556;2024-01-15T05:16:08;14.40;;;4.72;;
79015;SDS011;72726;44.842;37.556;2024-01-15T05:17:09;13.02;;;4.05;;
79015;SDS011;72726;44.842;37.556;2024-01-15T05:18:11;16.40;;;4.47;;
79015;SDS011;72726;44.842;37.556;2024-01-15T05:19:12;13.10;;;4.03;;
79015;SDS011;72726;44.842;37.556;2024-01-15T05:20:13;12.52;;;4.07;;
79015;SDS011;72726;44.842;37.556;2024-01-15T05:21:15;11.27;;;3.67;;
79015;SDS011;72726;44.842;37.556;2024-01-15T05:22:16;9.05;;;3.85;;
79015;SDS011;72726;44.842;37.556;2024-01-15T05:23:17;10.68;;;4.10;;
79015;SDS011;72726;44.842;37.556;2024-01-15T05:24:19;10.43;;;4.20;;
79015;SDS011;72726;44.842;37.556;2024-01-15T05:25:20;12.13;;;4.25;;
79015;SDS011;72726;44.842;37.556;2024-01-15T05:26:21;10.25;;;4.43;;
79015;SDS011;72726;44.842;37.556;2024-01-15T05:27:23;9.88;;;4.65;;
79015;SDS011;72726;44.842;37.556;2024-01-15T05:28:24;9.73;;;3.92;;
79015;SDS011;72726;44.842;37.556;2024-01-15T05:29:27;11.05;;;3.95;;
79015;SDS011;72726;44.842;37.556;2024-01-15T05:30:29;11.93;;;4.38;;
79015;SDS011;72726;44.842;37.556;2024-01-15T05:31:30;11.45;;;4.57;;
79015;SDS011;72726;44.842;37.556;2024-01-15T05:32:32;9.75;;;3.78;;
79015;SDS011;72726;44.842;37.556;2024-01-15T05:33:33;14.02;;;4.75;;
79015;SDS011;72726;44.842;37.556;2024-01-15T05:34:34;11.40;;;4.43;;
79015;SDS011;72726;44.842;37.556;2024-01-15T05:35:36;10.57;;;4.25;;
79015;SDS011;72726;44.842;37.556;2024-01-15T05:36:37;15.82;;;4.80;;
79015;SDS011;72726;44.842;37.556;2024-01-15T05:37:41;11.38;;;4.15;;
79015;SDS011;72726;44.842;37.556;2024-01-15T05:38:44;9.65;;;4.82;;
79015;SDS011;72726;44.842;37.556;2024-01-15T05:39:45;12.52;;;4.22;;
79015;SDS011;72726;44.842;37.556;2024-01-15T05:40:46;9.55;;;4.00;;
79015;SDS011;72726;44.842;37.556;2024-01-15T05:41:48;10.90;;;4.43;;
79015;SDS011;72726;44.842;37.556;2024-01-15T05:42:49;12.10;;;4.28;;
79015;SDS011;72726;44.842;37.556;2024-01-15T05:43:50;9.90;;;4.43;;
79015;SDS011;72726;44.842;37.556;2024-01-15T05:44:52;13.45;;;4.32;;
79015;SDS011;72726;44.842;37.556;2024-01-15T05:45:53;12.60;;;4.75;;
79015;SDS011;72726;44.842;37.556;2024-01-15T05:46:54;9.82;;;4.38;;
79015;SDS011;72726;44.842;37.556;2024-01-15T05:47:55;17.08;;;5.05;;
79015;SDS011;72726;44.842;37.556;2024-01-15T05:48:57;12.82;;;4.55;;
79015;SDS011;72726;44.842;37.556;2024-01-15T05:49:59;11.45;;;4.22;;
79015;SDS011;72726;44.842;37.556;2024-01-15T05:51:01;11.68;;;4.95;;
79015;SDS011;72726;44.842;37.556;2024-01-15T05:52:03;12.65;;;4.70;;
79015;SDS011;72726;44.842;37.556;2024-01-15T05:53:04;11.35;;;4.47;;
79015;SDS011;72726;44.842;37.556;2024-01-15T05:54:05;12.32;;;4.70;;
79015;SDS011;72726;44.842;37.556;2024-01-15T05:55:07;10.60;;;4.40;;
79015;SDS011;72726;44.842;37.556;2024-01-15T05:56:09;12.20;;;4.80;;
79015;SDS011;72726;44.842;37.556;2024-01-15T05:57:11;12.35;;;4.65;;
79015;SDS011;72726;44.842;37.556;2024-01-15T05:58:12;13.60;;;4.68;;
79015;SDS011;72726;44.842;37.556;2024-01-15T05:59:13;12.85;;;4.80;;
79015;SDS011;72726;44.842;37.556;2024-01-15T06:00:15;12.68;;;4.57;;
79015;SDS011;72726;44.842;37.556;2024-01-15T06:01:16;11.90;;;4.55;;
79015;SDS011;72726;44.842;37.556;2024-01-15T06:02:17;11.18;;;4.32;;
79015;SDS011;72726;44.842;37.556;2024-01-15T06:03:19;12.30;;;3.95;;
79015;SDS011;72726;44.842;37.556;2024-01-15T06:04:20;21.25;;;7.10;;
79015;SDS011;72726;44.842;37.556;2024-01-15T06:05:21;14.02;;;5.13;;
79015;SDS011;72726;44.842;37.556;2024-01-15T06:06:23;14.90;;;4.85;;